Time;durP1;ratioP1;P1;durP2;ratioP2;P2;SDS_P1;SDS_P2;PMS_P1;PMS_P2;Temp;Humidity;BMP_temperature;BMP_pressure;BME280_temperature;BME280_humidity;BME280_pressure;Samples;Min_cycle;Max_cycle;Signal;HPM_P1;HPM_P2
2022/05/23 00:00:35;;;;;;;2.90;2.40;;;19.30;52.70;;;19.52;45.73;96870.75;5027543;28;20045;-38
2022/05/23 00:03:03;;;;;;;2.83;2.53;;;19.30;52.60;;;19.52;45.83;96862.63;5027564;28;20060;-38
2022/05/23 00:05:31;;;;;;;3.22;2.85;;;19.30;52.50;;;19.52;45.81;96868.03;5028073;28;20351;-38
2022/05/23 00:08:00;;;;;;;3.55;2.20;;;19.30;52.50;;;19.52;45.71;96859.94;5026465;28;20064;-38
2022/05/23 00:10:28;;;;;;;3.05;2.53;;;19.30;52.70;;;19.52;45.76;96862.63;5027352;28;20240;-38
2022/05/23 00:12:55;;;;;;;3.33;2.10;;;19.30;52.70;;;19.48;45.95;96859.63;5027766;28;20106;-39
2022/05/23 00:15:24;;;;;;;3.35;2.55;;;19.20;52.70;;;19.47;45.81;96855.25;5027551;28;20340;-39
2022/05/23 00:17:52;;;;;;;4.28;2.20;;;19.30;52.70;;;19.46;45.82;96850.09;5026472;28;20052;-39
2022/05/23 00:20:23;;;;;;;2.45;2.13;;;19.20;52.60;;;19.42;46.01;96860.53;5027758;28;20045;-38
2022/05/23 00:23:03;;;;;;;3.58;2.17;;;19.20;53.00;;;19.37;46.16;96856.94;5027534;28;20053;-38
2022/05/23 00:25:31;;;;;;;2.65;2.13;;;19.10;54.10;;;19.35;46.12;96845.53;5027881;28;20347;-38
2022/05/23 00:27:59;;;;;;;3.00;2.20;;;19.00;53.40;;;19.33;45.84;96820.66;5025510;28;20064;-38
2022/05/23 00:30:27;;;;;;;2.20;2.00;;;19.00;53.40;;;19.31;46.18;96810.13;5027296;28;20057;-39
2022/05/23 00:35:53;;;;;;;2.72;2.28;;;19.00;53.30;;;19.25;46.25;96813.75;5042563;28;20351;-39
2022/05/23 00:38:21;;;;;;;3.67;2.17;;;19.00;53.40;;;19.24;46.08;96804.84;5040991;28;20255;-38
2022/05/23 00:43:56;;;;;;;2.88;2.13;;;19.00;53.80;;;19.25;46.18;96792.16;5025514;28;20116;-39
2022/05/23 00:46:24;;;;;;;2.97;1.90;;;18.90;53.60;;;19.19;46.14;96793.13;5026229;28;20374;-39
2022/05/23 00:48:52;;;;;;;3.10;1.92;;;18.90;53.40;;;19.15;46.27;96784.69;5026438;28;20045;-39
2022/05/23 00:51:20;;;;;;;3.58;2.55;;;18.80;53.50;;;19.15;46.53;96789.25;5026785;28;20053;-39
2022/05/23 00:53:53;;;;;;;2.85;2.40;;;18.80;53.70;;;19.11;46.60;96788.09;5027928;28;20366;-39
2022/05/23 00:56:28;;;;;;;3.85;3.03;;;18.80;54.10;;;19.06;46.30;96786.94;5027022;28;20059;-38
2022/05/23 00:59:02;;;;;;;4.53;2.40;;;18.70;54.40;;;19.02;46.70;96787.66;5009794;28;20045;-38
2022/05/23 01:01:35;;;;;;;2.42;2.22;;;18.60;54.60;;;18.99;46.81;96783.53;5024590;28;20785;-39
2022/05/23 01:04:06;;;;;;;2.78;2.30;;;18.60;54.50;;;18.94;46.87;96783.44;5026195;28;20053;-39
2022/05/23 01:06:35;;;;;;;2.67;2.20;;;18.60;54.90;;;18.88;46.97;96781.66;5041416;28;20687;-38
2022/05/23 01:09:04;;;;;;;2.88;2.30;;;18.50;54.90;;;18.83;47.27;96787.75;5027357;28;20339;-38
2022/05/23 01:11:32;;;;;;;3.05;2.67;;;18.50;55.40;;;18.79;47.42;96780.34;5025824;28;20071;-38
2022/05/23 01:14:00;;;;;;;4.00;2.90;;;18.40;55.70;;;18.74;47.31;96772.94;5026702;28;20047;-38
2022/05/23 01:16:28;;;;;;;5.50;3.00;;;18.30;55.70;;;18.67;47.50;96753.41;5024561;28;20061;-38
2022/05/23 01:19:01;;;;;;;3.05;2.78;;;18.20;55.90;;;18.60;47.78;96747.28;5041228;28;20045;-39
2022/05/23 01:22:13;;;;;;;3.20;2.55;;;18.20;56.00;;;18.55;47.98;96752.56;5025697;28;20320;-39
2022/05/23 01:24:58;;;;;;;4.22;3.33;;;18.10;57.90;;;18.49;48.04;96746.22;5012239;28;20237;-38
2022/05/23 01:27:29;;;;;;;6.03;4.07;;;18.00;57.20;;;18.43;48.31;96736.38;5024569;28;20045;-38
2022/05/23 01:29:57;;;;;;;6.30;3.10;;;18.00;57.10;;;18.41;48.37;96735.78;5023751;28;20063;-39
2022/05/23 01:32:25;;;;;;;5.60;3.15;;;18.00;57.10;;;18.39;48.60;96744.09;5041128;28;20252;-38
2022/05/23 01:34:56;;;;;;;3.15;2.85;;;18.00;57.20;;;18.38;48.75;96745.16;5023859;28;20057;-38
2022/05/23 01:37:24;;;;;;;4.05;3.00;;;18.00;57.40;;;18.35;48.68;96753.72;5040665;28;20049;-38
2022/05/23 01:40:01;;;;;;;3.58;2.83;;;18.00;57.50;;;18.32;48.99;96750.66;5023854;28;20049;-38
2022/05/23 01:42:51;;;;;;;3.50;3.20;;;17.90;58.00;;;18.21;49.07;96750.41;5025596;28;20057;-38
2022/05/23 01:45:33;;;;;;;3.75;3.35;;;17.70;58.40;;;18.13;49.28;96744.56;5024837;28;20061;-38
2022/05/23 01:48:15;;;;;;;4.57;3.38;;;17.60;60.00;;;18.03;49.45;96743.25;5040759;28;20212;-38
2022/05/23 01:50:43;;;;;;;3.88;2.97;;;17.50;59.20;;;18.02;49.46;96736.19;5023483;28;20263;-39
2022/05/23 01:53:11;;;;;;;4.38;3.25;;;17.50;59.10;;;18.00;49.79;96742.88;5025943;28;20049;-38
2022/05/23 01:55:49;;;;;;;4.00;3.60;;;17.50;59.30;;;17.98;49.79;96731.50;5041086;28;20053;-38
2022/05/23 02:01:14;;;;;;;3.25;2.40;;;17.60;59.00;;;18.00;49.75;96741.00;5010951;28;20059;-39
2022/05/23 02:03:49;;;;;;;4.45;2.53;;;17.60;58.90;;;17.98;49.68;96742.28;5040686;28;20080;-39
2022/05/23 02:06:17;;;;;;;7.20;3.28;;;17.60;58.80;;;17.97;49.79;96725.31;5025832;28;20450;-39
2022/05/23 02:08:50;;;;;;;3.47;2.60;;;17.60;58.60;;;17.96;49.81;96714.78;5008524;28;20061;-39
2022/05/23 02:11:19;;;;;;;3.10;2.80;;;17.60;58.90;;;17.95;49.74;96710.41;5023384;28;20239;-39
2022/05/23 02:13:47;;;;;;;4.57;3.33;;;17.60;58.80;;;17.93;49.88;96705.25;5023792;28;20060;-39
2022/05/23 02:16:27;;;;;;;3.85;2.60;;;17.60;58.90;;;17.94;49.99;96706.09;5024565;28;20079;-39
2022/05/23 02:19:00;;;;;;;4.85;3.42;;;17.50;59.10;;;17.92;49.94;96706.31;5024532;28;20052;-39
2022/05/23 02:21:30;;;;;;;3.58;2.58;;;17.60;59.00;;;17.92;49.76;96708.22;5023098;28;20348;-39
2022/05/23 02:23:58;;;;;;;3.00;2.67;;;17.50;59.10;;;17.90;50.16;96698.47;5025469;28;20288;-40
2022/05/23 02:26:26;;;;;;;2.78;2.47;;;17.50;59.00;;;17.90;49.81;96698.47;5024434;28;20063;-39
2022/05/23 02:29:00;;;;;;;3.80;2.88;;;17.50;59.00;;;17.87;50.18;96712.41;5040493;28;20290;-39
2022/05/23 02:31:30;;;;;;;3.67;2.60;;;17.50;59.20;;;17.85;50.08;96698.34;5022748;28;20061;-40
2022/05/23 02:34:10;;;;;;;3.75;3.17;;;17.40;59.30;;;17.76;50.43;96690.78;5023603;28;20049;-39
2022/05/23 02:36:44;;;;;;;3.90;2.97;;;17.30;59.60;;;17.69;50.65;96686.31;5024326;28;20057;-39
2022/05/23 02:39:14;;;;;;;6.82;2.90;;;17.30;60.10;;;17.63;50.83;96675.69;5023093;28;20045;-42
2022/05/23 02:41:47;;;;;;;;;;;17.20;60.50;;;17.56;50.70;96672.25;5024095;28;20049;-39
2022/05/23 02:44:18;;;;;;;3.92;2.92;;;17.20;62.10;;;17.59;50.67;96664.53;5024528;28;19935;-39
2022/05/23 02:46:47;;;;;;;3.53;2.75;;;17.20;60.60;;;17.62;50.62;96664.09;5024188;28;20062;-39
2022/05/23 02:49:18;;;;;;;3.95;3.10;;;17.20;60.10;;;17.68;50.97;96654.25;5023845;28;20320;-39
2022/05/23 02:51:48;;;;;;;5.82;3.40;;;17.30;60.20;;;17.70;50.84;96650.31;5027648;28;20060;-39
2022/05/23 02:54:17;;;;;;;5.28;3.20;;;17.40;59.90;;;17.74;50.66;96647.97;5028384;28;20057;-39
2022/05/23 02:56:53;;;;;;;4.75;3.05;;;17.40;59.70;;;17.75;50.77;96641.53;5025412;28;20055;-39
2022/05/23 02:59:23;;;;;;;4.18;3.22;;;17.40;59.80;;;17.77;50.73;96638.59;5028463;28;20393;-39
2022/05/23 03:04:47;;;;;;;5.07;3.28;;;17.50;59.60;;;17.81;50.64;96620.94;5045278;28;20049;-39
2022/05/23 03:07:16;;;;;;;5.90;3.28;;;17.50;59.70;;;17.82;50.89;96617.22;5023538;28;20250;-39
2022/05/23 03:09:56;;;;;;;3.58;3.00;;;17.50;59.80;;;17.84;50.96;96620.50;5007690;28;20067;-39
2022/05/23 03:12:26;;;;;;;5.07;3.03;;;17.60;59.70;;;17.86;50.83;96618.41;5008071;28;20259;-39
2022/05/23 03:14:55;;;;;;;5.53;3.10;;;17.60;59.80;;;17.87;51.16;96623.56;5008751;28;20052;-39
2022/05/23 03:17:22;;;;;;;3.45;2.72;;;17.60;60.20;;;17.87;50.84;96626.25;5007656;28;20060;-40
2022/05/23 03:19:50;;;;;;;3.65;2.92;;;17.60;60.00;;;17.88;51.03;96624.38;5022959;28;20064;-39
2022/05/23 03:27:53;;;;;;;5.40;3.20;;;17.60;59.80;;;17.84;51.19;96632.09;5006127;28;20068;-39
2022/05/23 03:30:30;;;;;;;4.05;3.67;;;17.60;59.80;;;17.80;51.21;96630.91;5007347;28;20054;-39
2022/05/23 03:32:58;;;;;;;4.20;2.83;;;17.50;60.30;;;17.78;51.36;96633.00;5007043;28;20050;-39
2022/05/23 03:35:29;;;;;;;3.47;3.00;;;17.50;61.20;;;17.80;51.30;96632.78;5009891;28;20358;-39
2022/05/23 03:37:59;;;;;;;3.33;2.90;;;17.50;60.40;;;17.78;51.21;96630.31;5007146;28;20062;-39
2022/05/23 03:40:35;;;;;;;4.45;3.50;;;17.50;60.00;;;17.81;51.27;96626.31;5008618;28;20049;-39
2022/05/23 03:43:03;;;;;;;4.97;3.60;;;17.60;59.90;;;17.81;51.18;96621.75;5004157;28;20054;-39
2022/05/23 03:45:32;;;;;;;4.40;2.88;;;17.60;59.90;;;17.82;51.36;96618.03;5007017;28;20054;-39
2022/05/23 03:48:01;;;;;;;3.53;2.80;;;17.60;60.00;;;17.84;51.42;96636.66;5022678;28;20072;-39
2022/05/23 03:50:31;;;;;;;8.25;2.90;;;17.60;60.00;;;17.83;51.66;96651.94;5006912;28;20068;-39
2022/05/23 03:53:03;;;;;;;3.50;2.45;;;17.60;60.30;;;17.84;51.68;96674.34;5007098;28;20056;-39
2022/05/23 03:55:33;;;;;;;3.35;2.92;;;17.50;61.30;;;17.84;52.07;96728.19;5007390;28;20053;-39
2022/05/23 03:58:28;;;;;;;2.67;2.42;;;17.50;61.70;;;17.62;52.42;96811.28;5008590;28;20301;-39
2022/05/23 04:01:36;;;;;;;7.90;4.35;;;17.40;61.60;;;16.77;62.86;96881.84;5024170;28;20061;-38
2022/05/23 04:04:20;;;;;;;6.53;3.50;;;16.30;98.30;;;16.37;61.22;96874.91;5008686;28;20064;-39
2022/05/23 04:07:10;;;;;;;5.30;4.20;;;15.30;99.90;;;16.11;62.29;96883.91;5012079;28;20058;-38
2022/05/23 04:09:54;;;;;;;5.87;3.70;;;14.90;99.90;;;15.75;63.72;96891.53;5006615;28;20158;-38
2022/05/23 04:12:27;;;;;;;8.45;4.78;;;14.60;99.90;;;15.53;65.45;96890.13;5022134;28;20080;-38
2022/05/23 04:14:55;;;;;;;8.73;3.70;;;14.50;99.90;;;15.20;67.54;96900.91;5008302;28;20068;-38
2022/05/23 04:17:27;;;;;;;7.93;4.15;;;14.30;99.90;;;15.01;68.91;96910.66;5005654;28;20060;-39
2022/05/23 04:19:56;;;;;;;7.20;3.47;;;14.30;99.90;;;14.94;69.47;96905.28;5006401;28;20224;-39
2022/05/23 04:22:26;;;;;;;6.28;3.92;;;14.30;99.90;;;15.02;68.01;96915.78;5022599;28;20050;-38
2022/05/23 04:25:06;;;;;;;7.53;3.63;;;14.40;99.90;;;14.99;69.27;96910.03;5007881;28;20053;-38
2022/05/23 04:27:35;;;;;;;8.52;4.03;;;14.40;99.90;;;15.01;69.13;96914.16;5007419;28;20070;-39
2022/05/23 04:30:05;;;;;;;5.20;4.03;;;14.40;99.90;;;14.99;69.27;96912.72;5005960;28;20072;-39
2022/05/23 04:35:26;;;;;;;4.70;3.28;;;14.50;99.90;;;14.92;70.41;96939.50;5007184;28;20248;-38
2022/05/23 04:37:57;;;;;;;5.45;4.00;;;14.50;99.90;;;14.96;69.37;96938.06;5006577;28;20064;-38
2022/05/23 04:40:37;;;;;;;5.55;3.67;;;14.50;99.90;;;14.99;69.81;96937.66;5004412;28;20072;-38
2022/05/23 04:43:08;;;;;;;5.90;4.38;;;14.60;99.90;;;15.07;70.47;96925.91;5007508;28;20061;-38
2022/05/23 04:45:36;;;;;;;5.78;3.53;;;14.70;99.90;;;15.10;69.69;96895.97;5006195;28;20091;-38
2022/05/23 04:51:02;;;;;;;7.07;4.00;;;14.70;99.90;;;15.08;70.64;96858.69;5004660;28;20067;-38
2022/05/23 04:53:39;;;;;;;5.43;3.70;;;14.70;99.90;;;15.07;71.47;96843.63;5005806;28;20255;-38
2022/05/23 04:56:12;;;;;;;4.35;3.67;;;14.80;99.90;;;15.08;71.32;96839.91;5005294;28;20046;-38
2022/05/23 04:58:40;;;;;;;4.63;4.13;;;14.70;99.90;;;15.13;71.58;96812.47;5004771;28;20062;-38
2022/05/23 05:01:08;;;;;;;5.00;3.47;;;14.80;99.90;;;15.12;71.91;96800.94;5022117;28;20492;-38
2022/05/23 05:03:37;;;;;;;6.97;3.97;;;14.80;99.90;;;15.21;71.25;96806.06;5004067;28;20535;-38
2022/05/23 05:06:06;;;;;;;6.35;3.80;;;14.80;99.90;;;15.24;71.36;96800.28;5004934;28;20385;-38
2022/05/23 05:08:36;;;;;;;5.70;3.60;;;14.90;99.90;;;15.28;71.12;96801.50;5005856;28;20074;-38
2022/05/23 05:11:05;;;;;;;3.97;3.58;;;14.90;99.90;;;15.32;71.46;96813.47;5005491;28;20050;-38
2022/05/23 05:13:35;;;;;;;5.70;3.83;;;14.90;99.90;;;15.30;71.53;96804.81;5006395;28;20374;-38
2022/05/23 05:16:08;;;;;;;5.28;3.90;;;14.90;99.90;;;15.27;71.76;96786.44;5004960;28;20061;-38
2022/05/23 05:18:39;;;;;;;4.82;3.65;;;14.80;99.90;;;15.26;71.93;96760.69;5005180;28;20056;-39
2022/05/23 05:21:25;;;;;;;4.30;3.80;;;14.80;99.90;;;15.33;71.14;96716.72;4991695;28;20196;-39
2022/05/23 05:24:25;;;;;;;6.65;4.05;;;14.90;99.90;;;15.44;71.18;96715.19;5037865;28;20050;-39
2022/05/23 05:27:12;;;;;;;6.60;4.30;;;15.10;99.90;;;15.60;71.16;96718.41;5004950;28;20054;-39
2022/05/23 05:29:39;;;;;;;6.18;4.90;;;15.30;99.90;;;15.68;71.15;96720.84;5006583;28;20075;-39
2022/05/23 05:32:22;;;;;;;5.53;4.53;;;15.30;99.90;;;15.77;71.04;96716.88;5005130;28;20076;-39
2022/05/23 05:35:02;;;;;;;5.75;4.45;;;15.50;99.90;;;15.88;70.83;96718.06;5005392;28;20703;-39
2022/05/23 05:37:45;;;;;;;5.40;3.70;;;15.60;99.90;;;15.95;70.99;96708.09;5006461;28;20079;-39
2022/05/23 05:40:19;;;;;;;5.55;3.95;;;15.70;99.90;;;16.03;70.69;96698.94;5005734;28;20064;-39
2022/05/23 05:42:56;;;;;;;4.90;3.75;;;15.80;99.90;;;16.07;70.71;96695.63;5021344;28;20052;-39
2022/05/23 05:46:00;;;;;;;6.57;4.15;;;15.90;99.90;;;16.15;70.46;96681.09;4991314;28;20062;-39
2022/05/23 05:48:44;;;;;;;5.15;3.63;;;15.90;99.90;;;16.25;70.52;96665.28;5005156;28;20065;-39
2022/05/23 05:51:16;;;;;;;6.80;4.55;;;16.00;99.90;;;16.31;70.46;96645.59;5006520;28;20064;-39
2022/05/23 05:54:08;;;;;;;4.57;4.05;;;16.10;99.90;;;16.36;70.49;96628.00;5015954;28;20061;-39
2022/05/23 05:56:45;;;;;;;6.10;4.35;;;16.20;99.90;;;16.44;70.00;96616.97;5002826;28;20054;-39
2022/05/23 05:59:14;;;;;;;9.98;5.38;;;16.40;99.90;;;16.48;69.94;96623.56;5003643;28;20049;-39
2022/05/23 06:01:46;;;;;;;6.53;3.83;;;16.40;99.90;;;16.57;69.98;96634.81;5003858;28;20374;-40
2022/05/23 06:04:16;;;;;;;5.25;3.88;;;16.50;99.90;;;16.65;69.71;96638.03;4989075;28;20596;-39
2022/05/23 06:12:35;;;;;;;6.40;4.00;;;16.70;99.90;;;16.91;69.11;96631.53;5004670;28;20057;-39
2022/05/23 06:15:23;;;;;;;5.75;3.97;;;16.80;99.90;;;16.89;69.19;96612.13;5006694;28;20060;-39
2022/05/23 06:17:52;;;;;;;6.50;4.20;;;16.90;99.90;;;16.92;68.93;96610.84;5004512;28;20054;-40
2022/05/23 06:20:23;;;;;;;6.25;4.03;;;16.90;99.90;;;16.88;68.98;96596.22;5004289;28;20060;-39
2022/05/23 06:22:51;;;;;;;5.47;3.83;;;16.90;99.90;;;16.92;68.76;96578.56;5004295;28;20368;-39
2022/05/23 06:25:21;;;;;;;6.13;3.75;;;17.00;99.90;;;16.93;68.68;96570.28;5006676;28;20053;-40
2022/05/23 06:27:51;;;;;;;5.88;5.05;;;17.00;99.90;;;16.98;68.90;96566.91;5008336;28;20064;-39
2022/05/23 06:30:23;;;;;;;6.45;4.40;;;17.00;99.90;;;16.98;68.87;96568.78;5008810;28;20045;-39
2022/05/23 06:32:58;;;;;;;5.60;4.05;;;17.00;99.90;;;16.98;69.09;96568.78;5010522;28;20060;-39
2022/05/23 06:35:33;;;;;;;6.65;3.38;;;17.00;99.90;;;16.86;69.21;96539.19;5025230;28;20046;-39
2022/05/23 06:38:01;;;;;;;6.03;4.13;;;17.00;99.90;;;16.88;69.13;96526.31;5024174;28;20222;-39
2022/05/23 06:40:55;;;;;;;4.70;3.75;;;17.00;99.90;;;16.94;68.97;96544.22;5023436;28;20050;-39
2022/05/23 06:44:01;;;;;;;5.88;4.35;;;17.10;99.90;;;16.96;69.18;96546.69;4998056;28;20054;-39
2022/05/23 06:46:48;;;;;;;4.63;4.15;;;17.10;99.90;;;17.02;68.56;96554.69;5012183;28;20095;-40
2022/05/23 06:49:35;;;;;;;5.15;3.97;;;17.00;99.90;;;17.00;68.68;96564.84;5021782;28;20048;-40
2022/05/23 06:52:04;;;;;;;5.00;4.00;;;17.00;99.90;;;17.08;68.47;96569.09;5009137;28;20057;-39
2022/05/23 06:54:52;;;;;;;4.25;3.85;;;17.10;99.90;;;17.18;68.43;96579.28;5008770;28;20248;-40
2022/05/23 06:57:27;;;;;;;6.13;4.38;;;17.20;99.90;;;17.25;68.68;96574.59;5007033;28;20067;-39
2022/05/23 06:59:55;;;;;;;7.95;4.50;;;17.30;99.90;;;17.32;68.37;96576.16;5008730;28;20050;-39
2022/05/23 07:02:26;;;;;;;5.53;4.35;;;17.40;99.90;;;17.43;68.17;96571.84;5007521;28;20271;-40
2022/05/23 07:14:16;;;;;;;6.18;3.78;;;17.90;99.90;;;17.86;67.95;96567.25;5007998;28;20375;-39
2022/05/23 07:16:46;;;;;;;8.05;4.13;;;18.10;99.90;;;17.86;67.88;96588.81;5008531;28;20049;-39
2022/05/23 07:19:14;;;;;;;6.43;4.28;;;18.20;99.90;;;17.90;67.71;96587.28;5008078;28;20341;-38
2022/05/23 07:22:08;;;;;;;5.38;3.78;;;18.20;99.90;;;18.01;67.61;96581.06;5010137;28;20449;-38
2022/05/23 07:24:43;;;;;;;6.82;4.70;;;18.30;99.90;;;18.07;67.24;96588.22;5024729;28;20062;-39
2022/05/23 07:27:14;;;;;;;4.68;3.78;;;18.30;99.90;;;18.13;67.24;96585.66;5006555;28;20050;-39
2022/05/23 07:29:42;;;;;;;4.22;3.67;;;18.30;99.90;;;18.13;66.66;96588.34;5006189;28;20056;-39
2022/05/23 07:32:15;;;;;;;6.32;4.00;;;18.40;99.90;;;18.21;66.95;96587.97;5024256;28;20356;-38
2022/05/23 07:34:45;;;;;;;5.53;4.53;;;18.50;99.90;;;18.33;66.82;96571.78;5006937;28;20058;-38
2022/05/23 07:37:15;;;;;;;4.72;4.30;;;18.60;99.90;;;18.44;66.72;96584.44;5008261;28;20054;-38
2022/05/23 07:39:44;;;;;;;7.25;5.22;;;18.60;99.90;;;18.54;66.50;96590.03;4991335;28;20064;-38
2022/05/23 07:42:32;;;;;;;4.38;3.80;;;18.80;99.90;;;18.62;66.00;96589.66;5010569;28;20309;-38
2022/05/23 07:45:06;;;;;;;5.07;4.28;;;18.80;99.90;;;18.64;64.66;96582.16;5008061;28;20061;-38
2022/05/23 07:47:35;;;;;;;6.10;3.88;;;18.80;99.90;;;18.64;64.99;96574.06;5007930;28;20057;-38
2022/05/23 07:50:23;;;;;;;7.03;3.97;;;18.90;99.90;;;18.74;64.86;96588.81;5007996;28;20066;-38
2022/05/23 08:01:27;;;;;;;5.47;3.83;;;19.20;99.90;;;18.88;64.51;96568.63;5036249;28;20045;-38
2022/05/23 08:04:02;;;;;;;4.88;3.67;;;19.20;99.90;;;18.86;63.86;96566.19;5030914;28;20058;-38
2022/05/23 08:06:52;;;;;;;4.50;4.00;;;19.20;99.90;;;18.95;63.75;96574.69;5035380;28;20057;-38
2022/05/23 08:09:22;;;;;;;5.80;3.35;;;19.30;99.90;;;19.05;63.44;96574.06;5033639;28;20057;-38
2022/05/23 08:12:02;;;;;;;3.50;3.17;;;19.30;99.90;;;19.12;63.14;96565.84;5028714;28;20059;-38
2022/05/23 08:14:31;;;;;;;4.60;3.72;;;19.40;99.90;;;19.16;62.96;96559.72;5029895;28;20385;-38
2022/05/23 08:17:03;;;;;;;5.03;3.88;;;19.40;99.90;;;19.26;62.72;96562.59;5014228;28;20055;-38
2022/05/23 08:19:36;;;;;;;6.20;3.90;;;19.50;99.90;;;19.31;62.42;96540.28;5032785;28;20065;-38
2022/05/23 08:22:09;;;;;;;7.75;3.97;;;19.50;99.90;;;19.36;62.54;96532.25;5046205;28;20053;-38
2022/05/23 08:24:44;;;;;;;6.72;3.60;;;19.60;99.90;;;19.46;62.15;96531.63;5044684;28;20052;-38
2022/05/23 08:27:12;;;;;;;6.88;4.05;;;19.70;99.90;;;19.45;61.97;96513.81;5046732;28;20059;-38
2022/05/23 08:29:45;;;;;;;6.32;3.72;;;19.80;99.90;;;19.54;61.91;96517.72;5044584;28;20155;-38
2022/05/23 08:32:16;;;;;;;8.75;3.72;;;19.80;99.90;;;19.60;61.91;96508.66;5061625;28;20068;-39
2022/05/23 08:34:52;;;;;;;4.25;3.83;;;19.90;99.90;;;19.65;61.81;96494.41;5046039;28;20063;-38
2022/05/23 08:37:20;;;;;;;6.22;4.25;;;20.00;99.60;;;19.69;61.38;96482.03;5028786;28;20061;-38
2022/05/23 08:39:49;;;;;;;3.80;3.47;;;20.00;98.30;;;19.70;61.31;96494.47;5043566;28;20367;-38
2022/05/23 08:43:05;;;;;;;9.05;4.03;;;20.00;96.00;;;19.68;61.00;96496.63;5045331;28;20052;-38
2022/05/23 08:45:44;;;;;;;5.15;3.65;;;20.00;95.10;;;19.74;61.21;96487.56;5044736;28;20381;-38
2022/05/23 08:48:29;;;;;;;7.03;4.47;;;20.00;94.70;;;19.69;61.16;96495.53;5029601;28;20057;-38
2022/05/23 08:51:17;;;;;;;4.38;3.42;;;19.90;93.20;;;19.74;61.47;96492.16;5029251;28;20057;-38
2022/05/23 08:54:24;;;;;;;6.65;3.88;;;19.90;94.30;;;19.81;61.05;96506.28;5045166;28;20063;-40
2022/05/23 08:56:58;;;;;;;5.30;3.80;;;20.00;92.50;;;19.82;60.42;96500.63;5050275;28;20343;-41
2022/05/23 08:59:42;;;;;;;3.92;3.40;;;20.10;91.30;;;19.88;60.56;96512.31;5045352;28;20052;-38
2022/05/23 09:02:47;;;;;;;5.25;3.85;;;20.20;90.30;;;20.02;60.59;96504.69;5029905;28;20044;-38
2022/05/23 09:05:57;;;;;;;4.88;3.22;;;20.40;90.30;;;20.09;59.82;96507.22;5045335;28;20048;-39
2022/05/23 09:08:53;;;;;;;6.50;3.63;;;20.50;86.40;;;20.22;60.21;96523.03;5046339;28;20170;-39
2022/05/23 09:11:41;;;;;;;4.70;3.25;;;20.60;86.80;;;20.23;60.07;96511.97;5046677;28;20365;-38
2022/05/23 09:14:13;;;;;;;6.20;3.78;;;20.60;83.20;;;20.36;60.17;96502.69;5034766;28;20048;-38
2022/05/23 09:16:52;;;;;;;7.05;3.42;;;20.70;83.20;;;20.44;59.79;96514.97;5033129;28;20045;-38
2022/05/23 09:19:35;;;;;;;7.72;3.95;;;20.80;82.60;;;20.54;59.71;96523.19;5033302;28;20234;-39
2022/05/23 09:22:23;;;;;;;8.25;3.53;;;20.90;80.70;;;20.58;59.20;96513.50;5036993;28;20173;-39
2022/05/23 09:25:01;;;;;;;4.53;3.60;;;21.00;79.60;;;20.62;58.87;96505.72;5036326;28;20053;-39
2022/05/23 09:27:35;;;;;;;5.30;3.17;;;21.00;80.00;;;20.64;59.17;96509.00;5037182;28;20056;-38
2022/05/23 09:30:23;;;;;;;4.10;3.45;;;21.10;79.80;;;20.73;59.23;96510.19;5036356;28;20045;-39
2022/05/23 09:33:13;;;;;;;4.50;3.60;;;21.00;79.70;;;20.81;58.87;96514.34;5035496;28;20057;-39
2022/05/23 09:36:18;;;;;;;4.78;3.60;;;21.00;80.20;;;20.83;58.17;96513.00;5037174;28;20334;-38
2022/05/23 09:38:56;;;;;;;6.22;3.45;;;21.10;76.60;;;20.91;58.39;96505.50;5023092;28;20172;-38
2022/05/23 09:47:57;;;;;;;9.50;4.28;;;21.40;76.60;;;21.15;56.98;96508.69;5037226;28;20057;-38
2022/05/23 09:50:28;;;;;;;4.80;4.13;;;21.40;73.90;;;21.17;57.41;96520.94;5053375;28;20057;-38
2022/05/23 09:53:52;;;;;;;6.80;3.40;;;21.40;75.90;;;21.16;57.57;96516.56;5038186;28;20045;-38
2022/05/23 09:56:40;;;;;;;4.22;3.38;;;21.30;76.10;;;21.17;57.74;96509.25;5036915;28;20045;-38
2022/05/23 09:59:35;;;;;;;4.40;3.80;;;21.40;76.10;;;21.24;57.12;96532.34;5036895;28;20048;-38
2022/05/23 10:02:31;;;;;;;7.40;3.53;;;21.50;75.60;;;21.34;57.25;96536.22;5034017;28;20056;-38
2022/05/23 10:04:59;;;;;;;5.88;3.70;;;21.60;75.80;;;21.36;56.88;96545.72;5037598;28;20067;-38
2022/05/23 10:07:34;;;;;;;7.10;3.17;;;21.50;74.30;;;21.35;56.52;96551.41;5038346;28;20060;-40
2022/05/23 10:10:18;;;;;;;4.32;3.45;;;21.50;74.70;;;21.39;56.81;96558.75;5038005;28;20049;-38
2022/05/23 10:13:41;;;;;;;;;;;21.50;74.90;;;21.32;57.06;96557.31;5037790;28;20049;-38
2022/05/23 10:16:12;;;;;;;4.72;3.58;;;21.50;74.60;;;21.40;57.01;96557.69;5036223;28;19923;-37
2022/05/23 10:19:05;;;;;;;4.07;3.28;;;21.40;75.90;;;21.34;56.62;96545.16;5036799;28;20055;-38
2022/05/23 10:21:39;;;;;;;6.15;3.38;;;21.50;73.30;;;;;;5037937;28;20045;-38
2022/05/23 10:24:24;;;;;;;4.82;3.58;;;21.40;74.90;;;21.40;56.88;96537.88;5035524;28;20043;-39
2022/05/23 10:27:06;;;;;;;4.78;3.03;;;21.40;74.70;;;21.42;56.84;96536.59;5036392;28;20049;-39
2022/05/23 10:30:02;;;;;;;3.88;3.50;;;21.50;75.20;;;21.46;56.63;96545.03;5020798;28;20053;-38
2022/05/23 10:32:48;;;;;;;3.70;3.30;;;21.60;74.40;;;21.53;56.66;96544.81;5029871;28;20366;-38
2022/05/23 10:36:23;;;;;;;9.07;7.50;;;21.70;74.30;;;21.57;57.29;96543.22;5056641;28;20051;-38
2022/05/23 10:42:11;;;;;;;5.50;4.95;;;21.80;74.90;;;21.74;57.08;96562.06;5041484;28;20145;-39
2022/05/23 10:45:03;;;;;;;3.95;3.55;;;21.90;75.00;;;21.78;57.07;96569.38;5042055;28;20343;-39
2022/05/23 10:47:56;;;;;;;5.00;4.18;;;22.00;73.70;;;21.74;55.82;96578.31;5041270;28;20045;-39
2022/05/23 10:50:46;;;;;;;4.38;2.85;;;21.90;72.40;;;21.74;56.11;96581.81;5041340;28;20052;-39
2022/05/23 10:53:29;;;;;;;6.72;3.53;;;21.80;72.80;;;21.70;55.99;96591.53;5041297;28;20061;-39
2022/05/23 10:56:14;;;;;;;3.75;3.28;;;21.80;72.30;;;21.66;56.04;96592.31;5040300;28;20235;-39
2022/05/23 10:58:52;;;;;;;5.35;3.17;;;21.70;72.30;;;21.63;56.06;96586.34;5040362;28;20071;-39
2022/05/23 11:01:47;;;;;;;5.55;3.28;;;21.70;72.50;;;21.61;56.01;96593.88;5035890;28;20054;-39
2022/05/23 11:05:22;;;;;;;4.22;3.20;;;21.60;72.40;;;21.55;56.33;96607.66;5033760;28;20053;-39
2022/05/23 11:08:10;;;;;;;4.43;3.75;;;21.60;73.60;;;21.51;57.05;96620.88;5028275;28;20268;-39
2022/05/23 11:10:47;;;;;;;5.28;4.00;;;21.50;76.40;;;21.50;57.69;96635.50;5029453;28;20059;-38
2022/05/23 11:13:35;;;;;;;5.30;3.83;;;21.40;78.10;;;21.43;58.20;96642.97;5031788;28;20053;-39
2022/05/23 11:16:48;;;;;;;5.47;3.33;;;21.30;78.60;;;21.31;59.20;96645.03;5030492;28;20082;-39
2022/05/23 11:20:06;;;;;;;5.60;3.90;;;21.20;82.10;;;21.23;59.79;96657.91;5023650;28;20350;-38
2022/05/23 11:22:46;;;;;;;6.45;4.80;;;21.10;84.30;;;21.11;62.18;96668.06;5027148;28;20061;-39
2022/05/23 11:25:35;;;;;;;4.43;3.65;;;20.90;88.70;;;20.97;61.22;96675.72;5028290;28;20377;-39
2022/05/23 11:34:28;;;;;;;5.03;4.53;;;20.40;99.90;;;20.69;63.06;96652.38;5028349;28;20527;-39
2022/05/23 11:39:57;;;;;;;6.47;4.00;;;20.50;99.90;;;20.76;63.46;96647.63;5028541;28;20063;-39
2022/05/23 11:43:02;;;;;;;7.72;4.07;;;20.60;99.90;;;20.80;63.17;96645.22;5011356;28;20061;-38
2022/05/23 11:46:02;;;;;;;4.80;4.07;;;20.60;99.90;;;20.80;64.00;96651.47;5029300;28;20060;-39
2022/05/23 11:48:58;;;;;;;4.85;3.90;;;20.70;99.90;;;20.78;63.80;96631.13;5027202;28;20059;-39
2022/05/23 11:51:40;;;;;;;6.20;4.32;;;20.70;99.90;;;20.79;63.90;96621.94;5026670;28;20067;-39
2022/05/23 11:54:35;;;;;;;5.15;4.05;;;20.70;99.90;;;20.74;63.85;96605.66;5028534;28;20071;-39
2022/05/23 11:57:15;;;;;;;6.18;4.30;;;20.70;99.90;;;20.72;64.34;96567.22;5029025;28;20367;-39
2022/05/23 11:59:48;;;;;;;7.18;3.85;;;20.70;99.90;;;20.74;64.13;96548.84;5027528;28;20060;-39
2022/05/23 12:02:22;;;;;;;6.20;4.25;;;20.70;99.90;;;20.73;64.00;96523.72;5028458;28;20055;-39
2022/05/23 12:04:51;;;;;;;5.28;4.40;;;20.70;99.90;;;20.75;64.05;96497.22;5027161;28;20059;-39
2022/05/23 12:07:33;;;;;;;6.07;4.18;;;20.70;99.90;;;20.67;64.42;96457.13;5027421;28;20243;-40
2022/05/23 12:10:24;;;;;;;8.40;4.38;;;20.70;99.90;;;20.64;63.95;96420.56;5028918;28;20052;-40